Naubinway, MI

6:27 AM EDT on April 02, 2015 (GMT -0400)
GarLyn Zoo | | Change Station
CLOSE
Current Station
Personal Weather Station
Location: Naubinway, MI
Elevation: 584 ft
Nearby Weather Stations

Elev 584 ft 46.09 °N, 85.32 °W | Updated 14 minutes ago

Mostly Cloudy
Mostly Cloudy
41.2 °F
Feels Like 41 °F
N
2.7
Wind Variable Wind from South

Today
High -- | Low -- °F
--% Chance of Precip.
Yesterday
High -- | Low -- °F
Precip. -- in
7:19 AM 8:11 PM
Waxing Gibbous, 96% visible
Pressure 29.53 in
Visibility 10.0 miles
Clouds Clear
Windchill 41 °F
Dew Point 34 °F
Humidity 77%
Rainfall 0.00 in
Snow Depth Not available.
UV 0 out of 12
Pollen 3.30 out of 12
Air Quality Not available.
Flu Activity Not available.
METAR KERY 021014Z AUTO 21016G22KT 10SM CLR 06/02 A2953 RMK AO2 T00570016

More Conditions Fewer Conditions

Pressure 29.53 in
Visibility 10.0 miles
Clouds Clear
Windchill 41 °F
Dew Point 34 °F
Humidity 77%
Rainfall 0.00 in
Snow Depth Not available.
UV 0 out of 12
Pollen 3.30 out of 12
Air Quality Not available.
Flu Activity Not available.
METAR KERY 021014Z AUTO 21016G22KT 10SM CLR 06/02 A2953 RMK AO2 T00570016

More Conditions Fewer Conditions

Nowcast | as of 6:00 am EDT on April 2, 2015

At 7 am...mostly cloudy. Chance of showers. Temperature 43. Southwest winds 22 mph. At 9 am...mostly cloudy. Temperature 42. Southwest winds 18 mph with gusts to 30 mph. At 11 am...periods of rain. Temperature 40. West winds 11 mph with gusts to 25 mph. At 1 PM...periods of rain. Temperature 39. West winds 13 mph.

×

10-Day Weather Forecast

Almanac

Astronomy

Apr. 02, 2015 Rise Set
Actual Time
Civil Twilight
Nautical Twilight
Astronomical Twilight
Moon
Length of Visible Light
Length of Day
Tomorrow will be .
, % of the Moon is Illuminated

Today's Extremes

State Highs State Lows

Community

WunderPhotos

Upload Photos

1,810,216 photos uploaded!

WunderBlogs® & News

Nearby

Air Quality

  Air Quality AQ Index Pollutant
Not available.

Snow Depth

Station Depth Elevation

Earthquake Activity

City Distance Mag. Time & Date
Minimum magnitude displayed is 2.5.

Coastal Water Temperatures

Place Temperature

Stations

Nearby Weather Stations

Station Location Temp. Windchill Dew Point Humidity Wind Precip. Elev Updated Type